createdAt,value
2019-04-28T00:04:31.585Z,74.50
2019-04-28T00:10:01.241Z,74.30
2019-04-28T00:15:30.992Z,74.10
2019-04-28T00:21:01.969Z,74.00
2019-04-28T00:26:45.105Z,74.20
2019-04-28T00:32:14.479Z,74.20
2019-04-28T00:37:43.828Z,74.20
2019-04-28T00:43:13.235Z,74.10
2019-04-28T00:48:42.689Z,74.10
2019-04-28T00:54:12.560Z,74.00
2019-04-28T00:59:54.123Z,74.10
2019-04-28T01:05:13.597Z,74.30
2019-04-28T01:10:42.997Z,74.30
2019-04-28T01:16:23.211Z,74.20
2019-04-28T01:22:10.261Z,74.40
2019-04-28T01:27:41.559Z,74.30
2019-04-28T01:33:30.873Z,74.30
2019-04-28T01:39:00.214Z,74.40
2019-04-28T01:44:29.802Z,74.50
2019-04-28T01:50:01.758Z,74.70
2019-04-28T01:55:30.230Z,74.70
2019-04-28T02:00:59.761Z,74.60
2019-04-28T02:06:29.977Z,74.90
2019-04-28T02:12:00.828Z,75.00
2019-04-28T02:17:30.674Z,74.80
2019-04-28T02:23:01.747Z,75.60
2019-04-28T02:28:31.099Z,74.80
2019-04-28T02:34:00.784Z,74.80
2019-04-28T02:39:31.267Z,74.70
2019-04-28T02:45:01.407Z,74.70
2019-04-28T02:50:35.156Z,74.60
2019-04-28T02:56:04.626Z,74.70
2019-04-28T03:01:33.936Z,74.40
2019-04-28T03:07:03.365Z,74.30
2019-04-28T03:12:32.825Z,74.10
2019-04-28T03:18:02.426Z,73.90
2019-04-28T03:23:31.829Z,73.80
2019-04-28T03:29:02.880Z,73.60
2019-04-28T03:34:53.762Z,73.50
2019-04-28T03:40:21.181Z,73.30
2019-04-28T03:46:02.804Z,73.10
2019-04-28T03:51:30.874Z,72.90
2019-04-28T03:57:01.255Z,72.80
2019-04-28T04:02:31.380Z,72.70
2019-04-28T04:08:01.126Z,72.70
2019-04-28T04:13:33.307Z,72.40
2019-04-28T04:19:07.095Z,72.40
2019-04-28T04:24:36.437Z,72.50
2019-04-28T04:30:06.997Z,72.20
2019-04-28T04:35:36.421Z,72.20
2019-04-28T04:41:06.174Z,72.00
2019-04-28T04:46:35.556Z,72.10
2019-04-28T04:52:04.980Z,72.00
2019-04-28T04:57:34.297Z,71.90
2019-04-28T05:03:05.603Z,71.90
2019-04-28T05:08:34.893Z,71.90
2019-04-28T05:14:07.356Z,71.70
2019-04-28T05:19:36.698Z,71.50
2019-04-28T05:25:17.531Z,71.50
2019-04-28T05:30:46.935Z,71.40
2019-04-28T05:36:16.395Z,71.20
2019-04-28T05:41:45.777Z,71.90
2019-04-28T05:47:15.103Z,71.10
2019-04-28T05:53:00.852Z,71.00
2019-04-28T05:58:31.816Z,70.70
2019-04-28T06:04:01.183Z,70.20
2019-04-28T06:09:35.805Z,69.90
2019-04-28T06:15:07.307Z,69.40
2019-04-28T06:20:36.727Z,68.50
2019-04-28T06:26:07.058Z,67.90
2019-04-28T06:31:36.768Z,66.40
2019-04-28T06:37:06.186Z,66.00
2019-04-28T06:42:35.760Z,65.40
2019-04-28T06:48:05.231Z,65.40
2019-04-28T06:53:34.729Z,63.90
2019-04-28T06:59:04.168Z,63.10
2019-04-28T07:04:33.558Z,62.90
2019-04-28T07:10:03.027Z,63.20
2019-04-28T07:15:38.338Z,63.40
2019-04-28T07:21:09.425Z,62.70
2019-04-28T07:26:38.814Z,62.70
2019-04-28T07:32:08.335Z,62.60
2019-04-28T07:37:37.900Z,61.60
2019-04-28T07:43:07.378Z,61.80
2019-04-28T07:48:36.710Z,62.20
2019-04-28T07:54:13.869Z,62.40
2019-04-28T08:00:02.700Z,61.10
2019-04-28T08:05:32.162Z,61.00
2019-04-28T08:11:01.543Z,60.00
2019-04-28T08:16:31.148Z,59.40
2019-04-28T08:22:00.633Z,57.10
2019-04-28T08:27:29.989Z,57.10
2019-04-28T08:33:15.920Z,56.80
2019-04-28T08:38:45.405Z,56.30
2019-04-28T08:44:14.805Z,56.00
2019-04-28T08:49:44.353Z,56.20
2019-04-28T08:55:14.035Z,55.90
2019-04-28T09:00:43.478Z,55.40
2019-04-28T09:06:12.870Z,55.30
2019-04-28T09:11:42.376Z,53.00
2019-04-28T09:17:12.264Z,54.70
2019-04-28T09:22:42.145Z,53.40
2019-04-28T09:28:12.072Z,53.30
2019-04-28T09:33:41.945Z,52.10
2019-04-28T09:39:13.235Z,52.50
2019-04-28T09:44:42.672Z,51.40
2019-04-28T09:50:12.284Z,51.60
2019-04-28T09:55:41.783Z,51.00
2019-04-28T10:01:11.315Z,50.70
2019-04-28T10:06:40.846Z,50.50
2019-04-28T10:12:10.379Z,51.20
2019-04-28T10:17:39.799Z,50.40
2019-04-28T10:23:09.246Z,50.10
2019-04-28T10:28:38.749Z,49.60
2019-04-28T10:34:08.442Z,49.60
2019-04-28T10:39:42.461Z,49.60
2019-04-28T10:45:13.664Z,49.60
2019-04-28T10:50:43.264Z,49.90
2019-04-28T10:56:12.754Z,49.40
2019-04-28T11:01:42.170Z,48.70
2019-04-28T11:07:13.410Z,49.00
2019-04-28T11:12:42.830Z,47.80
2019-04-28T11:18:13.896Z,46.90
2019-04-28T11:23:43.322Z,47.00
2019-04-28T11:29:12.933Z,46.80
2019-04-28T11:34:46.944Z,46.60
2019-04-28T11:40:16.845Z,47.10
2019-04-28T11:45:46.500Z,47.00
2019-04-28T11:51:16.092Z,47.10
2019-04-28T11:56:45.928Z,47.50
2019-04-28T12:02:15.626Z,46.90
2019-04-28T12:07:45.221Z,47.40
2019-04-28T12:13:25.428Z,47.30
2019-04-28T12:19:05.831Z,47.20
2019-04-28T12:24:35.202Z,47.40
2019-04-28T12:30:05.344Z,47.40
2019-04-28T12:35:47.211Z,47.50
2019-04-28T12:41:07.177Z,47.50
2019-04-28T12:46:36.574Z,47.30
2019-04-28T12:52:07.940Z,47.50
2019-04-28T12:57:37.612Z,48.00
2019-04-28T13:03:14.494Z,47.80
2019-04-28T13:08:49.881Z,47.70
2019-04-28T13:14:19.234Z,47.50
2019-04-28T13:19:48.724Z,47.50
2019-04-28T13:25:22.937Z,47.00
2019-04-28T13:30:52.544Z,47.10
2019-04-28T13:36:22.524Z,47.20
2019-04-28T13:41:52.223Z,46.80
2019-04-28T13:47:22.473Z,46.40
2019-04-28T13:52:51.984Z,46.50
2019-04-28T13:58:23.106Z,46.50
2019-04-28T14:03:56.892Z,46.70
2019-04-28T14:09:28.318Z,46.10
2019-04-28T14:15:04.531Z,45.40
2019-04-28T14:20:34.991Z,45.80
2019-04-28T14:26:06.720Z,45.40
2019-04-28T14:31:37.470Z,44.00
2019-04-28T14:37:07.054Z,44.40
2019-04-28T14:42:38.163Z,43.50
2019-04-28T14:48:07.624Z,42.80
2019-04-28T14:53:37.135Z,40.90
2019-04-28T14:59:06.762Z,41.50
2019-04-28T15:04:53.946Z,42.20
2019-04-28T15:10:28.003Z,42.30
2019-04-28T15:15:58.503Z,41.90
2019-04-28T15:21:28.262Z,42.70
2019-04-28T15:26:57.659Z,42.30
2019-04-28T15:32:27.177Z,43.10
2019-04-28T15:37:56.841Z,43.90
2019-04-28T15:43:26.566Z,44.70
2019-04-28T15:48:56.101Z,45.40
2019-04-28T15:54:25.508Z,46.10
2019-04-28T15:59:57.127Z,46.50
2019-04-28T16:05:26.759Z,46.70
2019-04-28T16:10:57.243Z,46.50
2019-04-28T16:16:26.680Z,46.70
2019-04-28T16:21:56.457Z,46.60
2019-04-28T16:27:26.259Z,46.90
2019-04-28T16:32:56.511Z,47.00
2019-04-28T16:38:26.109Z,47.00
2019-04-28T16:43:59.583Z,46.80
2019-04-28T16:49:29.186Z,47.10
2019-04-28T16:55:15.289Z,47.00
2019-04-28T17:00:46.463Z,47.40
2019-04-28T17:06:15.998Z,48.50
2019-04-28T17:11:45.597Z,48.80
2019-04-28T17:17:20.932Z,49.20
2019-04-28T17:22:50.460Z,49.40
2019-04-28T17:28:21.013Z,49.70
2019-04-28T17:33:50.903Z,49.80
2019-04-28T17:39:22.267Z,50.20
2019-04-28T17:44:52.017Z,50.30
2019-04-28T17:50:23.147Z,51.00
2019-04-28T17:55:52.616Z,52.10
2019-04-28T18:01:23.830Z,53.00
2019-04-28T18:06:57.682Z,53.90
2019-04-28T18:12:27.285Z,54.20
2019-04-28T18:18:07.608Z,55.00
2019-04-28T18:23:37.037Z,55.30
2019-04-28T18:29:06.467Z,55.80
2019-04-28T18:34:37.597Z,56.30
2019-04-28T18:40:22.104Z,56.90
2019-04-28T18:45:52.410Z,57.10
2019-04-28T18:51:24.954Z,57.40
2019-04-28T18:56:54.686Z,57.60
2019-04-28T19:02:37.460Z,58.60
2019-04-28T19:08:20.548Z,58.40
2019-04-28T19:13:54.389Z,58.80
2019-04-28T19:19:26.475Z,59.00
2019-04-28T19:24:56.088Z,59.20
2019-04-28T19:30:25.680Z,59.30
2019-04-28T19:35:55.165Z,59.50
2019-04-28T19:41:24.689Z,59.60
2019-04-28T19:46:57.221Z,59.90
2019-04-28T19:52:26.612Z,60.00
2019-04-28T19:57:57.796Z,60.00
2019-04-28T20:03:27.522Z,60.30
2019-04-28T20:08:57.146Z,60.40
2019-04-28T20:14:26.992Z,60.50
2019-04-28T20:19:56.402Z,61.40
2019-04-28T20:25:27.040Z,60.90
2019-04-28T20:30:57.871Z,61.10
2019-04-28T20:36:33.086Z,61.40
2019-04-28T20:42:16.373Z,61.60
2019-04-28T20:47:45.999Z,61.80
2019-04-28T20:53:15.332Z,62.10
2019-04-28T20:58:44.653Z,62.40
2019-04-28T21:04:14.041Z,62.80
2019-04-28T21:09:43.494Z,62.70
2019-04-28T21:15:13.233Z,63.10
2019-04-28T21:20:42.671Z,63.40
2019-04-28T21:26:12.092Z,63.80
2019-04-28T21:31:41.607Z,64.10
2019-04-28T21:37:11.324Z,64.50
2019-04-28T21:42:48.280Z,64.80
2019-04-28T21:48:35.372Z,64.90
2019-04-28T21:54:05.028Z,65.30
2019-04-28T21:59:34.451Z,65.60
2019-04-28T22:05:05.628Z,65.90
2019-04-28T22:10:35.237Z,66.10
2019-04-28T22:16:04.691Z,66.40
2019-04-28T22:21:34.164Z,66.60
2019-04-28T22:27:03.544Z,66.70
2019-04-28T22:32:32.868Z,66.90
2019-04-28T22:38:02.186Z,67.10
2019-04-28T22:43:31.720Z,67.20
2019-04-28T22:49:05.401Z,67.40
2019-04-28T22:54:39.272Z,67.50
2019-04-28T23:00:31.704Z,67.50
2019-04-28T23:06:01.129Z,67.70
2019-04-28T23:11:30.548Z,67.90
2019-04-28T23:16:59.986Z,68.10
2019-04-28T23:22:31.058Z,68.10
2019-04-28T23:28:00.420Z,68.20
2019-04-28T23:33:29.747Z,68.40
2019-04-28T23:38:59.056Z,68.60
2019-04-28T23:44:28.521Z,68.70
2019-04-28T23:49:57.881Z,68.90
2019-04-28T23:55:29.201Z,69.20
